Time;durP1;ratioP1;P1;durP2;ratioP2;P2;SDS_P1;SDS_P2;PMS_P1;PMS_P2;Temp;Humidity;BMP_temperature;BMP_pressure;BME280_temperature;BME280_humidity;BME280_pressure;Samples;Min_cycle;Max_cycle;Signal;HPM_P1;HPM_P2
2022/01/15 00:01:49;;;;;;;27.00;2.60;;;;;;;-0.25;92.56;102520.38;4918703;29;20111;-77
2022/01/15 00:04:14;;;;;;;15.93;2.45;;;;;;;-0.24;92.71;102516.78;4902649;29;20024;-77
2022/01/15 00:06:40;;;;;;;23.65;2.67;;;;;;;-0.24;92.92;102514.97;4918528;29;20042;-77
2022/01/15 00:09:06;;;;;;;20.00;2.35;;;;;;;-0.15;93.61;102523.34;4919468;29;20043;-77
2022/01/15 00:11:32;;;;;;;21.17;2.47;;;;;;;-0.16;93.71;102519.00;4918662;29;20435;-77
2022/01/15 00:14:11;;;;;;;24.55;3.15;;;;;;;-0.17;93.35;102525.22;4918582;29;20020;-77
2022/01/15 00:16:49;;;;;;;19.08;2.30;;;;;;;-0.24;93.54;102514.97;4888952;29;20467;-77
2022/01/15 00:19:17;;;;;;;17.83;2.67;;;;;;;-0.13;93.75;102521.44;4919163;29;20032;-77
2022/01/15 00:21:43;;;;;;;22.33;2.50;;;;;;;-0.21;93.94;102511.31;4910325;29;20082;-77
2022/01/15 00:24:08;;;;;;;23.15;3.10;;;;;;;-0.16;94.36;102519.84;4918417;29;20126;-77
2022/01/15 00:26:34;;;;;;;19.98;2.72;;;;;;;-0.31;94.11;102505.69;4901900;29;20035;-77
2022/01/15 00:28:59;;;;;;;21.60;3.10;;;;;;;-0.23;94.72;102526.44;4903302;29;20039;-77
2022/01/15 00:31:26;;;;;;;16.52;2.20;;;;;;;-0.29;94.86;102527.63;4919040;29;20036;-77
2022/01/15 00:33:51;;;;;;;16.73;2.35;;;;;;;-0.41;94.60;102514.22;4921229;29;20036;-78
2022/01/15 00:36:18;;;;;;;20.45;2.67;;;;;;;-0.47;94.92;102531.28;4903097;29;20055;-77
2022/01/15 00:38:44;;;;;;;15.77;2.50;;;;;;;-0.47;95.20;102547.16;4919081;29;20043;-77
2022/01/15 00:41:09;;;;;;;20.05;2.17;;;;;;;-0.47;95.09;102544.50;4904791;29;20028;-77
2022/01/15 00:43:35;;;;;;;25.92;2.28;;;;;;;-0.58;94.87;102541.63;4921105;29;20024;-77
2022/01/15 00:46:01;;;;;;;15.20;2.30;;;;;;;-0.52;95.31;102549.22;4891061;29;20064;-77
2022/01/15 00:48:26;;;;;;;18.58;2.95;;;;;;;-0.56;95.03;102547.69;4921318;29;20051;-77
2022/01/15 00:50:52;;;;;;;22.60;2.47;;;;;;;-0.57;95.30;102553.88;4907224;29;20044;-77
2022/01/15 00:53:17;;;;;;;26.13;2.45;;;;;;;-0.65;95.19;102551.66;4926632;29;20031;-77
2022/01/15 00:55:43;;;;;;;20.90;2.15;;;;;;;-0.63;95.56;102568.31;4920123;29;20044;-77
2022/01/15 00:58:08;;;;;;;18.27;2.20;;;;;;;-0.67;95.72;102569.38;4902269;29;20332;-77
2022/01/15 01:00:34;;;;;;;18.73;2.38;;;;;;;-0.68;95.62;102569.50;4902466;29;20024;-77
2022/01/15 01:03:00;;;;;;;22.27;2.70;;;;;;;-0.80;95.78;102565.69;4901081;29;20466;-77
2022/01/15 01:05:25;;;;;;;18.10;2.92;;;;;;;-0.78;95.82;102566.47;4917450;29;20027;-77
2022/01/15 01:07:51;;;;;;;17.42;2.08;;;;;;;-0.73;95.93;102569.72;4917430;29;20115;-76
2022/01/15 01:23:47;;;;;;;19.88;2.17;;;;;;;-0.81;96.28;102542.84;4902671;29;20498;-77
2022/01/15 01:26:25;;;;;;;21.58;2.58;;;;;;;-0.78;96.54;102551.47;4917409;29;20036;-77
2022/01/15 01:29:02;;;;;;;14.80;2.33;;;;;;;-0.84;96.76;102537.72;4903273;29;20024;-77
2022/01/15 01:31:39;;;;;;;20.77;2.45;;;;;;;-1.02;96.58;102515.81;4902272;29;20032;-77
2022/01/15 01:34:12;;;;;;;15.57;2.17;;;;;;;-0.96;96.72;102548.03;4902568;29;20099;-77
2022/01/15 01:36:49;;;;;;;18.90;2.53;;;;;;;-0.97;97.06;102548.94;4916376;29;20043;-77
2022/01/15 01:39:19;;;;;;;20.88;2.97;;;;;;;-1.03;97.18;102543.13;4901260;29;20047;-78
2022/01/15 01:42:04;;;;;;;22.55;2.22;;;;;;;-1.13;97.06;102534.84;4900382;29;20047;-77
2022/01/15 01:44:30;;;;;;;16.27;1.85;;;;;;;-1.10;96.81;102544.41;4902773;29;20035;-77
2022/01/15 01:47:05;;;;;;;19.67;2.25;;;;;;;-1.06;96.90;102548.59;4915419;29;20127;-77
2022/01/15 01:49:30;;;;;;;24.65;2.28;;;;;;;-1.10;97.11;102533.84;4902777;29;20087;-77
2022/01/15 01:51:55;;;;;;;17.52;2.45;;;;;;;-1.20;97.32;102517.63;4904404;29;20056;-77
2022/01/15 01:54:21;;;;;;;16.33;2.08;;;;;;;-1.23;97.43;102530.97;4921474;29;20036;-77
2022/01/15 01:56:48;;;;;;;23.67;2.22;;;;;;;-1.48;97.84;102519.06;4919978;29;20064;-77
2022/01/15 01:59:16;;;;;;;17.05;2.38;;;;;;;-1.45;97.82;102529.47;4920527;29;20028;-76
2022/01/15 02:01:42;;;;;;;16.20;2.50;;;;;;;-1.54;98.25;102519.38;4920348;29;20028;-77
2022/01/15 02:04:08;;;;;;;15.40;2.50;;;;;;;-1.46;97.71;102534.81;4920977;29;20043;-77
2022/01/15 02:06:35;;;;;;;13.25;2.00;;;;;;;-1.64;97.96;102504.94;4920223;29;20071;-77
2022/01/15 02:09:05;;;;;;;14.85;2.22;;;;;;;-1.52;97.58;102528.06;4903697;29;20128;-77
2022/01/15 02:11:30;;;;;;;27.17;2.58;;;;;;;-1.62;97.68;102500.44;4921458;29;20107;-77
2022/01/15 02:13:56;;;;;;;17.55;2.33;;;;;;;-1.58;97.74;102490.59;4903435;29;20070;-77
2022/01/15 02:16:21;;;;;;;16.77;2.15;;;;;;;-1.47;98.00;102509.34;4896849;29;20040;-77
2022/01/15 02:18:54;;;;;;;20.02;2.17;;;;;;;-1.39;97.93;102512.47;4901932;29;20036;-78
2022/01/15 02:23:50;;;;;;;22.15;2.50;;;;;;;-1.71;98.34;102463.97;4920814;29;20070;-78
2022/01/15 02:26:23;;;;;;;16.50;1.98;;;;;;;-1.34;98.53;102514.84;4919857;29;20894;-77
2022/01/15 02:28:58;;;;;;;23.70;2.72;;;;;;;-1.36;98.13;102516.72;4920555;29;20020;-77
2022/01/15 02:31:25;;;;;;;20.10;2.13;;;;;;;-1.46;98.52;102496.09;4920219;29;20047;-77
2022/01/15 02:33:54;;;;;;;20.42;2.03;;;;;;;-1.53;98.32;102481.47;4896070;29;20108;-77
2022/01/15 02:36:29;;;;;;;14.95;2.63;;;;;;;-1.47;98.79;102494.34;4903818;29;20111;-77
2022/01/15 02:38:55;;;;;;;18.15;2.55;;;;;;;-1.47;98.79;102499.63;4904419;29;20024;-77
2022/01/15 02:41:27;;;;;;;13.73;2.08;;;;;;;-1.47;98.82;102504.06;4913155;29;20466;-77
2022/01/15 02:43:53;;;;;;;20.63;1.90;;;;;;;-1.47;99.13;102506.72;4919974;29;20043;-78
2022/01/15 02:48:49;;;;;;;16.67;2.22;;;;;;;-1.51;99.35;102502.53;4919408;29;20055;-78
2022/01/15 02:51:17;;;;;;;18.45;2.15;;;;;;;-1.49;99.03;102495.34;4919030;29;20047;-77
2022/01/15 02:53:43;;;;;;;21.17;2.25;;;;;;;-1.44;98.81;102498.63;4919974;29;20538;-77
2022/01/15 02:56:09;;;;;;;14.35;2.10;;;;;;;-1.46;99.47;102506.66;4902041;29;20040;-77
2022/01/15 02:58:35;;;;;;;19.80;2.08;;;;;;;-1.55;99.12;102478.06;4920045;29;20036;-77
2022/01/15 03:01:00;;;;;;;24.75;2.00;;;;;;;-1.62;99.14;102452.94;4887739;29;20036;-77
2022/01/15 03:03:26;;;;;;;23.85;2.88;;;;;;;-1.39;99.71;102498.38;4878904;29;20051;-77
2022/01/15 03:05:51;;;;;;;19.27;2.33;;;;;;;-1.43;99.34;102487.13;4903346;29;20047;-77
2022/01/15 03:08:16;;;;;;;17.40;2.20;;;;;;;-1.36;99.44;102495.59;4886941;29;20028;-77
2022/01/15 03:10:42;;;;;;;17.77;2.15;;;;;;;-1.45;99.49;102489.88;4903293;29;20024;-77
2022/01/15 03:13:11;;;;;;;11.65;2.10;;;;;;;-1.53;99.62;102477.97;4919444;29;20028;-78
2022/01/15 03:15:38;;;;;;;15.20;2.10;;;;;;;-1.53;100.00;102472.69;4918431;29;20495;-78
2022/01/15 03:18:03;;;;;;;21.10;2.25;;;;;;;-1.45;100.00;102474.03;4919075;29;20441;-77
2022/01/15 03:20:29;;;;;;;15.50;2.00;;;;;;;-1.43;100.00;102471.28;4918147;29;20111;-78
2022/01/15 03:22:54;;;;;;;25.38;2.55;;;;;;;-1.38;100.00;102489.53;4902452;29;20477;-78
2022/01/15 03:25:21;;;;;;;19.40;2.50;;;;;;;-1.42;100.00;102470.38;4903049;29;20132;-78
2022/01/15 03:27:46;;;;;;;18.35;2.95;;;;;;;-1.41;100.00;102480.00;4871435;29;20028;-78
2022/01/15 03:30:12;;;;;;;15.73;1.77;;;;;;;-1.39;100.00;102485.19;4903375;29;20087;-79
2022/01/15 03:32:42;;;;;;;26.95;2.63;;;;;;;-1.49;100.00;102475.13;4919146;29;20032;-78
2022/01/15 03:35:13;;;;;;;14.30;2.17;;;;;;;-1.42;100.00;102483.56;4919825;29;20054;-78
2022/01/15 03:37:40;;;;;;;15.23;2.30;;;;;;;-1.52;100.00;102479.72;4919430;29;20020;-78
2022/01/15 03:40:08;;;;;;;15.98;1.88;;;;;;;-1.39;100.00;102490.47;4889538;29;20064;-79
2022/01/15 03:42:34;;;;;;;24.23;2.55;;;;;;;-1.33;100.00;102495.44;4923191;29;20015;-78
2022/01/15 03:44:59;;;;;;;20.35;2.95;;;;;;;-1.31;100.00;102483.00;4903624;29;20028;-78
2022/01/15 03:47:25;;;;;;;15.15;2.28;;;;;;;-1.29;100.00;102497.84;4919639;29;20054;-78
2022/01/15 03:49:50;;;;;;;17.25;1.75;;;;;;;-1.29;100.00;102487.28;4902950;29;20064;-78
2022/01/15 03:52:16;;;;;;;16.95;1.85;;;;;;;-1.28;100.00;102480.22;4903183;29;20040;-78
2022/01/15 03:54:41;;;;;;;16.75;2.03;;;;;;;-1.32;100.00;102476.03;4904560;29;20123;-77
2022/01/15 03:57:07;;;;;;;15.98;2.13;;;;;;;-1.34;100.00;102478.72;4888460;29;20039;-78
2022/01/15 03:59:32;;;;;;;17.30;2.42;;;;;;;-1.30;100.00;102474.13;4888900;29;20040;-78
2022/01/15 04:01:58;;;;;;;17.60;1.90;;;;;;;-1.29;100.00;102484.63;4903324;29;20059;-78
2022/01/15 04:04:24;;;;;;;20.15;3.40;;;;;;;-1.27;100.00;102485.38;4906277;29;20044;-78
2022/01/15 04:06:49;;;;;;;16.65;2.40;;;;;;;-1.30;100.00;102474.13;4920395;29;20059;-78
2022/01/15 04:09:15;;;;;;;22.52;2.50;;;;;;;-1.21;100.00;102473.66;4921315;29;20099;-77
2022/01/15 04:11:41;;;;;;;14.02;2.05;;;;;;;-1.23;100.00;102475.50;4905605;29;20032;-77
2022/01/15 04:14:06;;;;;;;19.30;2.05;;;;;;;-1.14;100.00;102479.47;4922173;29;20103;-78
2022/01/15 04:16:32;;;;;;;14.15;2.08;;;;;;;-1.21;100.00;102476.31;4892522;29;20128;-79
2022/01/15 04:18:59;;;;;;;16.08;2.90;;;;;;;-1.26;100.00;102481.84;4923872;29;20035;-78
2022/01/15 04:21:25;;;;;;;14.52;2.10;;;;;;;-1.26;100.00;102476.56;4918407;29;20466;-78
2022/01/15 04:23:51;;;;;;;20.98;2.40;;;;;;;-1.26;100.00;102467.75;4909698;29;20123;-78
2022/01/15 04:26:22;;;;;;;22.48;3.05;;;;;;;-1.27;100.00;102460.78;4908129;29;20033;-77
2022/01/15 04:28:47;;;;;;;16.73;2.53;;;;;;;-1.39;100.00;102462.28;4905076;29;20052;-78
2022/01/15 04:31:13;;;;;;;15.50;2.65;;;;;;;-1.47;100.00;102467.97;4910841;29;20095;-77
2022/01/15 04:33:38;;;;;;;18.45;2.17;;;;;;;-1.48;100.00;102470.69;4924239;29;20107;-78
2022/01/15 04:36:06;;;;;;;25.20;2.70;;;;;;;-1.40;100.00;102468.50;4891404;29;20032;-78
2022/01/15 04:38:35;;;;;;;20.45;2.78;;;;;;;-1.29;100.00;102470.56;4895164;29;20032;-78
2022/01/15 04:41:01;;;;;;;20.90;2.85;;;;;;;-1.24;100.00;102464.09;4894617;29;20035;-78
2022/01/15 04:43:27;;;;;;;24.83;3.00;;;;;;;-1.17;100.00;102459.34;4907818;29;20036;-77
2022/01/15 04:45:52;;;;;;;18.38;2.55;;;;;;;-1.12;100.00;102449.41;4907795;29;20040;-77
2022/01/15 04:48:18;;;;;;;29.05;2.90;;;;;;;-1.04;100.00;102448.97;4918098;29;20051;-78
2022/01/15 04:50:43;;;;;;;20.00;2.80;;;;;;;-0.98;100.00;102448.66;4915298;29;20197;-78
2022/01/15 04:53:09;;;;;;;16.02;2.58;;;;;;;-0.90;100.00;102446.41;4901094;29;20043;-78
2022/01/15 04:55:35;;;;;;;25.23;3.38;;;;;;;-0.82;100.00;102452.16;4900833;29;20106;-77
2022/01/15 04:58:03;;;;;;;27.48;2.67;;;;;;;-0.80;100.00;102452.91;4900333;29;20032;-77
2022/01/15 05:00:35;;;;;;;21.05;2.95;;;;;;;-0.79;100.00;102449.34;4915326;29;20095;-78
2022/01/15 05:03:00;;;;;;;16.83;2.30;;;;;;;-0.78;100.00;102448.41;4916516;29;20039;-77
2022/01/15 05:05:28;;;;;;;22.77;3.30;;;;;;;-0.76;100.00;102443.88;4916505;29;20044;-77
2022/01/15 05:07:54;;;;;;;25.15;3.25;;;;;;;-0.84;100.00;102419.66;4900555;29;20036;-78
2022/01/15 05:10:23;;;;;;;20.45;2.75;;;;;;;-0.74;100.00;102441.16;4885474;29;20483;-77
2022/01/15 05:12:49;;;;;;;19.10;2.33;;;;;;;-0.78;100.00;102439.63;4916389;29;20382;-77
2022/01/15 05:15:17;;;;;;;18.45;3.33;;;;;;;-0.83;100.00;102431.97;4915057;29;20028;-78
2022/01/15 05:17:43;;;;;;;21.00;3.10;;;;;;;-0.78;100.00;102431.69;4884745;29;20032;-78
2022/01/15 05:20:10;;;;;;;23.40;2.80;;;;;;;-0.81;100.00;102424.78;4916282;29;20043;-78
2022/01/15 05:22:35;;;;;;;23.25;2.90;;;;;;;-0.89;100.00;102405.88;4917273;29;20115;-78
2022/01/15 05:25:03;;;;;;;26.40;2.88;;;;;;;-0.75;100.00;102428.88;4915790;29;20399;-77
2022/01/15 05:27:28;;;;;;;18.17;2.58;;;;;;;-0.76;100.00;102421.91;4917287;29;20059;-78
2022/01/15 05:29:55;;;;;;;22.58;2.80;;;;;;;-0.84;100.00;102416.16;4900179;29;20032;-78
2022/01/15 05:32:23;;;;;;;25.02;2.75;;;;;;;-0.97;100.00;102390.41;4916907;29;20036;-78
2022/01/15 05:34:49;;;;;;;29.02;2.42;;;;;;;-0.84;100.00;102411.72;4900233;29;20032;-78
2022/01/15 05:37:16;;;;;;;20.90;2.60;;;;;;;-0.82;100.00;102409.03;4916618;29;20148;-78
2022/01/15 05:39:41;;;;;;;23.40;2.58;;;;;;;-0.84;100.00;102422.31;4916842;29;20055;-78
2022/01/15 05:42:07;;;;;;;25.52;3.20;;;;;;;-0.88;100.00;102402.28;4884426;29;20040;-78
2022/01/15 05:44:34;;;;;;;26.67;3.30;;;;;;;-0.76;100.00;102419.25;4916033;29;20091;-78
2022/01/15 05:46:59;;;;;;;34.78;3.25;;;;;;;-0.76;100.00;102406.88;4900673;29;20098;-78
2022/01/15 05:49:24;;;;;;;19.13;3.08;;;;;;;-0.76;100.00;102406.03;4916532;29;20052;-79
2022/01/15 05:51:50;;;;;;;23.40;2.70;;;;;;;-0.72;100.00;102408.41;4886285;29;20064;-79
2022/01/15 05:54:15;;;;;;;23.67;3.20;;;;;;;-0.74;100.00;102406.78;4916919;28;20048;-78
2022/01/15 05:56:41;;;;;;;29.80;3.60;;;;;;;-0.82;100.00;102396.66;4897192;29;20060;-78
2022/01/15 05:59:07;;;;;;;20.85;2.63;;;;;;;-0.74;100.00;102407.63;4899783;29;20549;-77
2022/01/15 06:01:33;;;;;;;24.83;3.25;;;;;;;-0.79;100.00;102400.91;4899910;29;20039;-77
2022/01/15 06:03:59;;;;;;;20.63;3.45;;;;;;;-0.77;100.00;102415.72;4917470;29;20052;-77
2022/01/15 06:06:24;;;;;;;22.65;3.35;;;;;;;-0.89;100.00;102405.00;4915743;29;20044;-78
2022/01/15 06:08:50;;;;;;;26.63;3.67;;;;;;;-0.84;100.00;102408.25;4900965;29;20047;-78
2022/01/15 06:11:17;;;;;;;19.98;4.25;;;;;;;-0.98;100.00;102391.38;4904727;29;20360;-78
2022/01/15 06:13:47;;;;;;;27.98;3.55;;;;;;;-0.87;100.00;102408.41;4900586;29;20028;-77
2022/01/15 06:16:13;;;;;;;19.20;3.17;;;;;;;-0.85;100.00;102402.09;4900827;29;20024;-77
2022/01/15 06:18:39;;;;;;;19.27;3.50;;;;;;;-0.82;100.00;102409.03;4916684;29;20028;-77
2022/01/15 06:21:05;;;;;;;23.90;2.72;;;;;;;-0.79;100.00;102414.13;4900739;29;20047;-78
2022/01/15 06:23:30;;;;;;;25.95;3.08;;;;;;;-0.79;100.00;102411.50;4900292;29;20127;-78
2022/01/15 06:25:55;;;;;;;25.65;3.08;;;;;;;-0.80;100.00;102410.63;4900718;29;20051;-78
2022/01/15 06:28:22;;;;;;;20.95;2.90;;;;;;;-0.85;100.00;102402.09;4883744;29;20367;-78
2022/01/15 06:30:48;;;;;;;21.35;3.00;;;;;;;-0.85;100.00;102403.91;4916743;29;20115;-78
2022/01/15 06:33:13;;;;;;;22.08;3.55;;;;;;;-0.80;100.00;102421.19;4898741;29;20107;-78
2022/01/15 06:35:39;;;;;;;19.90;2.97;;;;;;;-0.90;100.00;102403.28;4893654;29;20032;-77
2022/01/15 06:38:04;;;;;;;23.63;3.42;;;;;;;-1.01;100.00;102394.19;4918295;29;20129;-78
2022/01/15 06:40:31;;;;;;;18.80;3.42;;;;;;;-0.87;100.00;102421.63;4900437;29;20085;-78
2022/01/15 06:42:57;;;;;;;24.42;3.22;;;;;;;-0.92;100.00;102415.75;4908709;29;20036;-78
2022/01/15 06:45:22;;;;;;;33.00;3.65;;;;;;;-0.90;100.00;102419.16;4905345;29;20123;-78
2022/01/15 06:47:48;;;;;;;20.48;2.75;;;;;;;-1.00;100.00;102402.94;4904353;29;20047;-78
2022/01/15 06:50:13;;;;;;;21.27;2.67;;;;;;;-0.89;100.00;102426.13;4900463;29;20483;-78
2022/01/15 06:52:39;;;;;;;22.88;3.35;;;;;;;-0.84;100.00;102418.81;4902768;29;20029;-77
2022/01/15 06:55:06;;;;;;;19.40;3.08;;;;;;;-0.81;100.00;102419.50;4904399;29;20133;-78
2022/01/15 06:57:32;;;;;;;32.47;3.15;;;;;;;-0.90;100.00;102398.84;4919911;29;20046;-78
2022/01/15 06:59:57;;;;;;;31.58;3.58;;;;;;;-0.86;100.00;102412.75;4921457;29;20458;-78
2022/01/15 07:02:23;;;;;;;25.42;3.40;;;;;;;-0.88;100.00;102407.56;4904464;29;20128;-78
2022/01/15 07:04:48;;;;;;;25.55;3.08;;;;;;;-0.93;100.00;102408.75;4921251;29;20067;-78
2022/01/15 07:07:13;;;;;;;27.23;3.42;;;;;;;-1.03;100.00;102393.41;4904509;29;20114;-78
2022/01/15 07:09:39;;;;;;;17.15;3.17;;;;;;;-1.01;100.00;102406.53;4885427;29;20068;-78
2022/01/15 07:12:05;;;;;;;21.92;3.28;;;;;;;-1.05;100.00;102408.50;4890923;29;20463;-78
2022/01/15 07:14:30;;;;;;;16.20;2.92;;;;;;;-1.10;100.00;102410.53;4922520;29;20024;-78
2022/01/15 07:16:56;;;;;;;26.88;3.28;;;;;;;-1.12;100.00;102401.00;4905995;29;20362;-79
2022/01/15 07:19:22;;;;;;;23.77;3.55;;;;;;;-1.06;100.00;102409.44;4904021;29;20040;-79
2022/01/15 07:21:47;;;;;;;26.48;3.35;;;;;;;-1.06;100.00;102403.28;4904394;29;20106;-78
2022/01/15 07:24:16;;;;;;;28.00;3.75;;;;;;;-1.09;100.00;102391.13;4925675;29;20039;-78
2022/01/15 07:26:42;;;;;;;31.30;4.30;;;;;;;-1.02;100.00;102395.13;4928392;29;20039;-80
2022/01/15 07:29:14;;;;;;;21.38;3.15;;;;;;;-0.96;100.00;102404.47;4923536;29;20032;-79
2022/01/15 07:31:40;;;;;;;18.73;3.15;;;;;;;-0.96;100.00;102410.63;4904142;29;20485;-79
2022/01/15 07:34:06;;;;;;;27.65;3.80;;;;;;;-0.98;100.00;102401.94;4901711;29;20051;-79
2022/01/15 07:36:32;;;;;;;25.63;3.50;;;;;;;-0.94;100.00;102415.81;4902707;29;20028;-79
2022/01/15 07:38:57;;;;;;;24.33;4.10;;;;;;;-0.86;100.00;102412.75;4919876;29;20060;-78
2022/01/15 07:41:23;;;;;;;23.05;3.67;;;;;;;-0.85;100.00;102407.41;4919408;29;20363;-79
2022/01/15 07:43:48;;;;;;;21.02;3.85;;;;;;;-0.79;100.00;102400.91;4910786;29;20091;-80
2022/01/15 07:46:14;;;;;;;27.55;3.25;;;;;;;-0.82;100.00;102390.53;4923487;29;20090;-77
2022/01/15 07:48:39;;;;;;;17.55;3.60;;;;;;;-0.75;100.00;102402.44;4920315;29;20028;-80
2022/01/15 07:51:05;;;;;;;26.20;3.47;;;;;;;-0.74;100.00;102399.69;4901310;29;20195;-79
2022/01/15 07:53:31;;;;;;;25.17;4.22;;;;;;;-0.85;100.00;102370.41;4920026;29;20111;-78
2022/01/15 07:55:57;;;;;;;27.08;4.05;;;;;;;-0.78;100.00;102378.84;4915873;29;20039;-78
2022/01/15 07:58:22;;;;;;;20.67;3.28;;;;;;;-0.72;100.00;102397.00;4899820;29;20543;-82
2022/01/15 08:00:47;;;;;;;31.75;3.88;;;;;;;-0.76;100.00;102379.59;4886302;29;20035;-80
2022/01/15 08:03:13;;;;;;;32.55;4.10;;;;;;;-0.65;100.00;102381.63;4879047;29;20387;-79
2022/01/15 08:05:39;;;;;;;24.02;3.33;;;;;;;-0.64;100.00;102384.16;4873644;29;20036;-80
2022/01/15 08:08:04;;;;;;;22.02;3.50;;;;;;;-0.57;100.00;102388.16;4904344;29;20025;-79
2022/01/15 08:10:29;;;;;;;21.90;3.55;;;;;;;-0.52;100.00;102375.56;4918064;29;20055;-79
2022/01/15 08:12:55;;;;;;;26.55;3.80;;;;;;;-0.48;100.00;102379.72;4903784;29;20050;-79
2022/01/15 08:15:23;;;;;;;27.90;4.15;;;;;;;-0.42;100.00;102378.50;4903000;29;20522;-79
2022/01/15 08:17:48;;;;;;;38.53;4.55;;;;;;;-0.45;100.00;102360.19;4920032;29;20028;-79
2022/01/15 08:20:15;;;;;;;29.73;4.93;;;;;;;-0.32;100.00;102370.91;4904477;29;20040;-79
2022/01/15 08:22:42;;;;;;;29.10;6.65;;;;;;;-0.28;100.00;102369.78;4903514;29;20458;-79
2022/01/15 08:25:08;;;;;;;27.98;8.13;;;;;;;-0.27;100.00;102368.81;4923160;29;20031;-80
2022/01/15 08:27:34;;;;;;;35.17;7.95;;;;;;;-0.19;100.00;102371.88;4909010;29;20028;-79
2022/01/15 08:29:59;;;;;;;35.08;7.30;;;;;;;-0.24;100.00;102366.00;4900562;29;20033;-79
2022/01/15 08:32:25;;;;;;;36.75;6.53;;;;;;;-0.20;100.00;102375.44;4900518;29;20067;-79
2022/01/15 08:34:50;;;;;;;29.05;6.35;;;;;;;-0.13;100.00;102375.94;4914803;29;20471;-79
2022/01/15 08:37:16;;;;;;;36.88;6.68;;;;;;;-0.06;100.00;102380.78;4885731;29;20036;-79
2022/01/15 08:39:41;;;;;;;28.08;5.93;;;;;;;-0.02;100.00;102379.66;4900506;29;20043;-79
2022/01/15 08:42:09;;;;;;;31.00;5.72;;;;;;;0.01;100.00;102375.97;4885457;29;20099;-79
2022/01/15 08:44:36;;;;;;;27.92;5.75;;;;;;;0.04;100.00;102365.22;4901590;29;20122;-79
2022/01/15 08:47:02;;;;;;;24.35;6.18;;;;;;;0.10;100.00;102364.84;4916159;29;20095;-78
2022/01/15 08:49:28;;;;;;;30.15;6.10;;;;;;;0.15;100.00;102362.75;4898823;29;20068;-79
2022/01/15 08:51:54;;;;;;;37.97;6.60;;;;;;;0.14;100.00;102349.63;4911659;29;20039;-78
2022/01/15 08:54:19;;;;;;;26.77;5.57;;;;;;;0.22;100.00;102350.84;4899806;29;20032;-79
2022/01/15 08:56:45;;;;;;;29.77;6.05;;;;;;;0.26;100.00;102350.66;4910758;29;20459;-80
2022/01/15 08:59:11;;;;;;;37.97;6.07;;;;;;;0.29;100.00;102338.09;4907105;29;20095;-79
2022/01/15 09:01:36;;;;;;;35.70;6.07;;;;;;;0.35;100.00;102334.22;4910345;29;20051;-79
2022/01/15 09:04:02;;;;;;;41.58;7.03;;;;;;;0.39;100.00;102333.91;4882726;29;20455;-79
2022/01/15 09:06:27;;;;;;;28.95;5.63;;;;;;;0.37;100.00;102313.81;4915521;29;20036;-79
2022/01/15 09:08:53;;;;;;;33.28;6.18;;;;;;;0.41;100.00;102312.66;4890929;29;20191;-79
2022/01/15 09:11:18;;;;;;;35.42;5.90;;;;;;;0.53;100.00;102329.56;4926970;29;20024;-80
2022/01/15 09:13:44;;;;;;;35.72;6.20;;;;;;;0.59;100.00;102323.88;4925895;29;20102;-81
2022/01/15 09:16:09;;;;;;;40.28;9.38;;;;;;;0.55;100.00;102307.31;4905137;29;20028;-80
2022/01/15 09:18:35;;;;;;;44.45;9.25;;;;;;;0.62;100.00;102302.50;4902719;29;20040;-80
2022/01/15 09:21:02;;;;;;;48.83;9.40;;;;;;;0.76;100.00;102309.56;4909195;29;20088;-80
2022/01/15 09:23:27;;;;;;;49.30;7.97;;;;;;;0.75;100.00;102308.72;4885355;29;20347;-81
2022/01/15 09:25:53;;;;;;;45.50;7.65;;;;;;;0.86;100.00;102318.59;4901034;29;20061;-79
2022/01/15 09:31:03;;;;;;;47.90;7.43;;;;;;;0.92;100.00;102307.63;4905426;29;20484;-79
2022/01/15 09:33:29;;;;;;;40.03;7.20;;;;;;;0.97;100.00;102312.63;4919649;29;20028;-80
2022/01/15 09:35:54;;;;;;;38.40;7.68;;;;;;;1.01;100.00;102309.69;4902094;29;20046;-80
2022/01/15 09:38:20;;;;;;;45.90;7.50;;;;;;;1.01;100.00;102306.19;4901860;29;20091;-80
2022/01/15 09:40:46;;;;;;;52.22;7.85;;;;;;;1.15;100.00;102311.41;4916185;29;20032;-79
2022/01/15 09:43:13;;;;;;;43.88;7.80;;;;;;;1.14;100.00;102304.44;4927104;29;20028;-85
2022/01/15 09:45:39;;;;;;;50.60;7.55;;;;;;;1.24;100.00;102310.81;4934961;29;20032;-83
2022/01/15 09:48:06;;;;;;;41.65;7.25;;;;;;;1.28;100.00;102314.97;4924531;29;20043;-78
2022/01/15 09:50:36;;;;;;;53.47;7.35;;;;;;;1.33;100.00;102315.53;4912494;29;20147;-84
2022/01/15 09:53:02;;;;;;;37.95;7.03;;;;;;;1.38;100.00;102317.84;4913944;29;20062;-78
2022/01/15 09:55:28;;;;;;;50.40;8.02;;;;;;;1.40;100.00;102311.50;4915891;29;20092;-79
2022/01/15 09:57:54;;;;;;;52.60;7.40;;;;;;;1.29;100.00;102282.22;4897800;29;20040;-83
2022/01/15 10:00:21;;;;;;;53.78;7.43;;;;;;;1.48;100.00;102305.69;4910659;29;20398;-79
2022/01/15 10:02:49;;;;;;;42.55;8.00;;;;;;;1.46;100.00;102301.41;4926854;29;20047;-86
2022/01/15 10:05:16;;;;;;;45.45;8.02;;;;;;;1.52;100.00;102303.66;4918078;29;20046;-79
2022/01/15 10:08:02;;;;;;;54.80;10.68;;;;;;;1.59;100.00;102300.50;4922675;29;20103;-81
2022/01/15 10:10:30;;;;;;;55.50;9.82;;;;;;;1.57;100.00;102298.91;4924535;29;20044;-78
2022/01/15 10:13:09;;;;;;;43.38;9.20;;;;;;;1.65;100.00;102304.53;4923718;29;20036;-83
2022/01/15 10:15:35;;;;;;;52.47;9.40;;;;;;;1.69;100.00;102310.47;4916832;29;20038;-82
2022/01/15 10:18:00;;;;;;;50.30;9.73;;;;;;;1.72;100.00;102311.13;4903620;29;20056;-87
2022/01/15 10:20:35;;;;;;;46.33;9.10;;;;;;;1.06;100.00;102212.16;5043689;23;20244;-87
2022/01/15 10:23:13;;;;;;;53.15;8.13;;;;;;;1.34;100.00;102237.66;5038403;23;20049;-81
2022/01/15 10:25:38;;;;;;;49.60;8.07;;;;;;;1.71;100.00;102293.50;4894989;29;20052;-79
2022/01/15 10:28:04;;;;;;;43.85;8.25;;;;;;;1.77;100.00;102293.09;4881062;29;20028;-82
2022/01/15 10:30:30;;;;;;;46.30;8.85;;;;;;;1.88;100.00;102313.56;4892774;29;20364;-83
2022/01/15 10:35:27;;;;;;;49.45;8.68;;;;;;;1.36;100.00;102213.69;4928965;29;20048;-81
2022/01/15 10:37:59;;;;;;;48.72;9.23;;;;;;;2.01;100.00;102310.94;4926236;28;20083;-81
2022/01/15 10:40:27;;;;;;;48.47;8.95;;;;;;;1.96;100.00;102300.66;4932483;29;20052;-80
2022/01/15 10:42:58;;;;;;;40.70;9.73;;;;;;;1.98;100.00;102303.19;4931186;29;20039;-83
2022/01/15 10:45:26;;;;;;;52.05;9.68;;;;;;;2.09;100.00;102311.28;4922979;29;20059;-81
2022/01/15 10:47:55;;;;;;;61.50;9.98;;;;;;;2.12;100.00;102308.41;4919864;29;20035;-82
2022/01/15 10:50:26;;;;;;;60.67;11.00;;;;;;;2.26;100.00;102326.03;4915884;29;20103;-79
2022/01/15 10:52:54;;;;;;;54.25;10.52;;;;;;;2.30;100.00;102312.41;4919780;29;20470;-79
2022/01/15 10:55:31;;;;;;;49.88;10.32;;;;;;;2.33;100.00;102300.72;4921008;29;20482;-79
2022/01/15 10:57:57;;;;;;;51.72;10.60;;;;;;;2.39;100.00;102307.41;4906839;29;20087;-77
2022/01/15 11:00:40;;;;;;;48.75;10.68;;;;;;;2.34;100.00;102291.78;4916371;29;20035;-78
2022/01/15 11:03:12;;;;;;;56.92;10.35;;;;;;;2.50;100.00;102304.81;4920852;29;20423;-80
2022/01/15 11:05:42;;;;;;;67.93;11.45;;;;;;;2.45;100.00;102285.69;4924011;29;20355;-85
2022/01/15 11:08:16;;;;;;;48.90;9.30;;;;;;;2.51;100.00;102293.22;4922766;29;20059;-81
2022/01/15 11:10:51;;;;;;;50.17;9.77;;;;;;;2.61;100.00;102298.75;4917229;29;20020;-79
2022/01/15 11:13:18;;;;;;;;;;;;;;;2.38;100.00;102250.75;4907930;29;20046;-81
2022/01/15 11:15:50;;;;;;;53.53;9.95;;;;;;;2.54;100.00;102267.28;4919969;29;19974;-81
2022/01/15 11:18:22;;;;;;;51.70;9.77;;;;;;;2.66;100.00;102284.16;4919228;29;20423;-78
2022/01/15 11:20:51;;;;;;;47.25;8.80;;;;;;;2.55;100.00;102260.16;4915621;29;20032;-79
2022/01/15 11:23:19;;;;;;;51.10;9.30;;;;;;;2.67;100.00;102277.88;4912212;29;20027;-79
2022/01/15 11:25:45;;;;;;;46.28;8.18;;;;;;;2.71;100.00;102276.69;4914064;29;20087;-79
2022/01/15 11:28:13;;;;;;;47.05;8.55;;;;;;;2.78;100.00;102274.44;4919339;29;20059;-80
2022/01/15 11:30:39;;;;;;;49.30;8.63;;;;;;;2.80;100.00;102284.00;4919080;29;20016;-79
2022/01/15 11:33:05;;;;;;;51.72;8.63;;;;;;;2.63;100.00;102249.84;4913071;29;20047;-79
2022/01/15 11:35:44;;;;;;;50.40;10.63;;;;;;;2.67;100.00;102259.28;4915367;29;20036;-79
2022/01/15 11:38:10;;;;;;;57.83;16.35;;;;;;;2.79;100.00;102268.19;4937031;29;20020;-79